LNNSV ENRA-ENBO
Flight info
| Callsign | LNNSV |
|---|---|
| Flight time | 0h 26m |
| Altitude | 8000 |
| Route | RANUM/N0161F070 |
| Aircraft | BT36/L-BDFGLORY/S |
Departure
| Time | 2026-05-04 21:30 |
|---|---|
| Airport | Mo i Rana Airport, Røssvoll (ENRA) |
Arrival
| Time | 2026-05-04 21:57 |
|---|---|
| Airport | Bodø Airport (ENBO) |
| Time | Latitude | Longitude | Altitude | Speed | Heading |
|---|---|---|---|---|---|
| 2026-05-04 21:14 | 66.36420 | 14.30357 | 229 ft | 0 kts | 104° |
| 2026-05-04 21:26 | 66.36405 | 14.30368 | 229 ft | 7 kts | 220° |
| 2026-05-04 21:26 | 66.36431 | 14.30265 | 229 ft | 5 kts | 286° |
| 2026-05-04 21:26 | 66.36428 | 14.30247 | 229 ft | 2 kts | 229° |
| 2026-05-04 21:27 | 66.36428 | 14.30246 | 229 ft | 0 kts | 228° |
| 2026-05-04 21:27 | 66.36426 | 14.30242 | 229 ft | 2 kts | 227° |
| 2026-05-04 21:27 | 66.36404 | 14.30178 | 230 ft | 7 kts | 230° |
| 2026-05-04 21:28 | 66.36354 | 14.30203 | 230 ft | 12 kts | 141° |
| 2026-05-04 21:28 | 66.36267 | 14.30381 | 227 ft | 21 kts | 141° |
| 2026-05-04 21:28 | 66.36150 | 14.30620 | 230 ft | 20 kts | 145° |
| 2026-05-04 21:28 | 66.36083 | 14.30751 | 233 ft | 7 kts | 79° |
| 2026-05-04 21:29 | 66.36101 | 14.30740 | 234 ft | 0 kts | 322° |
| 2026-05-04 21:30 | 66.36159 | 14.30613 | 230 ft | 43 kts | 318° |
| 2026-05-04 21:30 | 66.36553 | 14.29888 | 364 ft | 77 kts | 330° |
| 2026-05-04 21:30 | 66.37030 | 14.29424 | 590 ft | 70 kts | 328° |
| 2026-05-04 21:30 | 66.37472 | 14.28739 | 906 ft | 77 kts | 322° |
| 2026-05-04 21:31 | 66.38507 | 14.27189 | 1452 ft | 97 kts | 328° |
| 2026-05-04 21:31 | 66.39138 | 14.26545 | 1663 ft | 99 kts | 340° |
| 2026-05-04 21:31 | 66.39818 | 14.26233 | 1861 ft | 98 kts | 354° |
| 2026-05-04 21:32 | 66.40506 | 14.26279 | 2034 ft | 100 kts | 358° |
| 2026-05-04 21:32 | 66.41197 | 14.26329 | 2259 ft | 97 kts | 349° |
| 2026-05-04 21:32 | 66.41839 | 14.26074 | 2518 ft | 100 kts | 349° |
| 2026-05-04 21:32 | 66.42588 | 14.26222 | 2769 ft | 118 kts | 4° |
| 2026-05-04 21:33 | 66.43460 | 14.26398 | 3026 ft | 130 kts | 360° |
| 2026-05-04 21:33 | 66.44379 | 14.26560 | 3302 ft | 136 kts | 359° |
| 2026-05-04 21:33 | 66.45332 | 14.26641 | 3583 ft | 134 kts | 359° |
| 2026-05-04 21:33 | 66.46229 | 14.26594 | 3934 ft | 131 kts | 352° |
| 2026-05-04 21:34 | 66.47108 | 14.26383 | 4333 ft | 126 kts | 345° |
| 2026-05-04 21:34 | 66.48031 | 14.26308 | 4563 ft | 132 kts | 354° |
| 2026-05-04 21:34 | 66.48877 | 14.26102 | 4857 ft | 116 kts | 348° |
| 2026-05-04 21:34 | 66.49643 | 14.25880 | 5082 ft | 105 kts | 349° |
| 2026-05-04 21:35 | 66.50345 | 14.25732 | 5257 ft | 102 kts | 356° |
| 2026-05-04 21:35 | 66.51050 | 14.25736 | 5401 ft | 102 kts | 349° |
| 2026-05-04 21:35 | 66.51763 | 14.25531 | 5558 ft | 102 kts | 347° |
| 2026-05-04 21:35 | 66.52436 | 14.25223 | 5831 ft | 97 kts | 344° |
| 2026-05-04 21:36 | 66.53116 | 14.25103 | 6049 ft | 99 kts | 352° |
| 2026-05-04 21:36 | 66.53799 | 14.25083 | 6350 ft | 102 kts | 351° |
| 2026-05-04 21:36 | 66.54526 | 14.24890 | 6585 ft | 106 kts | 352° |
| 2026-05-04 21:36 | 66.55262 | 14.24973 | 6941 ft | 109 kts | 358° |
| 2026-05-04 21:37 | 66.56031 | 14.25147 | 7127 ft | 112 kts | 358° |
| 2026-05-04 21:37 | 66.56799 | 14.25244 | 7508 ft | 106 kts | 358° |
| 2026-05-04 21:37 | 66.57573 | 14.25485 | 7684 ft | 116 kts | 3° |
| 2026-05-04 21:37 | 66.58341 | 14.25770 | 8025 ft | 114 kts | 1° |
| 2026-05-04 21:38 | 66.59171 | 14.25843 | 8177 ft | 127 kts | 351° |
| 2026-05-04 21:38 | 66.60010 | 14.25561 | 8544 ft | 122 kts | 346° |
| 2026-05-04 21:38 | 66.60943 | 14.25186 | 8429 ft | 146 kts | 345° |
| 2026-05-04 21:38 | 66.61938 | 14.24622 | 8436 ft | 150 kts | 343° |
| 2026-05-04 21:39 | 66.63009 | 14.24075 | 8090 ft | 158 kts | 344° |
| 2026-05-04 21:39 | 66.64048 | 14.23584 | 8014 ft | 145 kts | 345° |
| 2026-05-04 21:39 | 66.65011 | 14.23196 | 8017 ft | 139 kts | 347° |
| 2026-05-04 21:39 | 66.65976 | 14.22883 | 7972 ft | 138 kts | 346° |
| 2026-05-04 21:40 | 66.66885 | 14.22292 | 7945 ft | 137 kts | 337° |
| 2026-05-04 21:40 | 66.67794 | 14.21797 | 8034 ft | 132 kts | 347° |
| 2026-05-04 21:40 | 66.68396 | 14.21581 | 8043 ft | 134 kts | 346° |
| 2026-05-04 21:40 | 66.69328 | 14.21155 | 8049 ft | 137 kts | 346° |
| 2026-05-04 21:41 | 66.70278 | 14.20735 | 8011 ft | 141 kts | 345° |
| 2026-05-04 21:41 | 66.71225 | 14.20230 | 8072 ft | 137 kts | 342° |
| 2026-05-04 21:41 | 66.72180 | 14.19791 | 8022 ft | 140 kts | 344° |
| 2026-05-04 21:41 | 66.73123 | 14.19336 | 8035 ft | 139 kts | 344° |
| 2026-05-04 21:42 | 66.74077 | 14.18914 | 8025 ft | 140 kts | 344° |
| 2026-05-04 21:42 | 66.75033 | 14.18378 | 7990 ft | 141 kts | 343° |
| 2026-05-04 21:42 | 66.75966 | 14.17873 | 8126 ft | 133 kts | 345° |
| 2026-05-04 21:42 | 66.76896 | 14.17489 | 8132 ft | 136 kts | 346° |
| 2026-05-04 21:43 | 66.77810 | 14.16835 | 8125 ft | 138 kts | 338° |
| 2026-05-04 21:43 | 66.78705 | 14.16024 | 8212 ft | 134 kts | 335° |
| 2026-05-04 21:43 | 66.79548 | 14.14972 | 8083 ft | 143 kts | 327° |
| 2026-05-04 21:43 | 66.80423 | 14.13841 | 8127 ft | 139 kts | 336° |
| 2026-05-04 21:44 | 66.81351 | 14.13389 | 8205 ft | 139 kts | 353° |
| 2026-05-04 21:44 | 66.82322 | 14.13499 | 8164 ft | 145 kts | 2° |
| 2026-05-04 21:44 | 66.83329 | 14.13979 | 8096 ft | 147 kts | 7° |
| 2026-05-04 21:44 | 66.84337 | 14.14445 | 8054 ft | 142 kts | 354° |
| 2026-05-04 21:45 | 66.85265 | 14.13774 | 8028 ft | 138 kts | 334° |
| 2026-05-04 21:45 | 66.86175 | 14.13050 | 8050 ft | 137 kts | 339° |
| 2026-05-04 21:45 | 66.87067 | 14.12310 | 8140 ft | 134 kts | 337° |
| 2026-05-04 21:45 | 66.87949 | 14.11553 | 8191 ft | 136 kts | 339° |
| 2026-05-04 21:46 | 66.88868 | 14.10912 | 8199 ft | 138 kts | 343° |
| 2026-05-04 21:46 | 66.89847 | 14.10735 | 8199 ft | 143 kts | 356° |
| 2026-05-04 21:46 | 66.90859 | 14.10984 | 8177 ft | 149 kts | 6° |
| 2026-05-04 21:46 | 66.91853 | 14.11687 | 8222 ft | 149 kts | 14° |
| 2026-05-04 21:47 | 66.92840 | 14.12545 | 8214 ft | 150 kts | 16° |
| 2026-05-04 21:47 | 66.93810 | 14.13528 | 8232 ft | 151 kts | 20° |
| 2026-05-04 21:47 | 66.94751 | 14.14820 | 8199 ft | 156 kts | 27° |
| 2026-05-04 21:47 | 66.95675 | 14.16255 | 8137 ft | 159 kts | 25° |
| 2026-05-04 21:48 | 66.96686 | 14.17373 | 8090 ft | 155 kts | 14° |
| 2026-05-04 21:48 | 66.97718 | 14.18079 | 8112 ft | 152 kts | 9° |
| 2026-05-04 21:48 | 66.98742 | 14.18807 | 8068 ft | 152 kts | 9° |
| 2026-05-04 21:48 | 66.99736 | 14.19517 | 8054 ft | 153 kts | 12° |
| 2026-05-04 21:49 | 67.00753 | 14.20136 | 8082 ft | 148 kts | 6° |
| 2026-05-04 21:49 | 67.01752 | 14.20478 | 8147 ft | 143 kts | 3° |
| 2026-05-04 21:49 | 67.02730 | 14.21007 | 8187 ft | 143 kts | 8° |
| 2026-05-04 21:49 | 67.03701 | 14.21741 | 8188 ft | 145 kts | 18° |
| 2026-05-04 21:50 | 67.04560 | 14.23377 | 8033 ft | 158 kts | 39° |
| 2026-05-04 21:50 | 67.05474 | 14.24690 | 8084 ft | 145 kts | 5° |
| 2026-05-04 21:50 | 67.06454 | 14.25041 | 8142 ft | 143 kts | 2° |
| 2026-05-04 21:50 | 67.07410 | 14.25622 | 8287 ft | 141 kts | 16° |
| 2026-05-04 21:51 | 67.08338 | 14.26614 | 8292 ft | 146 kts | 19° |
| 2026-05-04 21:51 | 67.09263 | 14.27680 | 8312 ft | 147 kts | 18° |
| 2026-05-04 21:51 | 67.10289 | 14.28491 | 8061 ft | 159 kts | 12° |
| 2026-05-04 21:51 | 67.11318 | 14.29024 | 8192 ft | 141 kts | 355° |
| 2026-05-04 21:52 | 67.12293 | 14.28781 | 8105 ft | 145 kts | 358° |
| 2026-05-04 21:52 | 67.13306 | 14.29360 | 7841 ft | 152 kts | 16° |
| 2026-05-04 21:52 | 67.14270 | 14.30511 | 7551 ft | 157 kts | 23° |
| 2026-05-04 21:52 | 67.15254 | 14.31849 | 7050 ft | 167 kts | 22° |
| 2026-05-04 21:53 | 67.16363 | 14.33095 | 6399 ft | 177 kts | 22° |
| 2026-05-04 21:53 | 67.17383 | 14.34607 | 6228 ft | 163 kts | 28° |
| 2026-05-04 21:53 | 67.18375 | 14.36130 | 5663 ft | 169 kts | 24° |
| 2026-05-04 21:53 | 67.19419 | 14.37448 | 5207 ft | 165 kts | 19° |
| 2026-05-04 21:54 | 67.20509 | 14.38398 | 4739 ft | 163 kts | 14° |
| 2026-05-04 21:54 | 67.21558 | 14.39339 | 4388 ft | 160 kts | 19° |
| 2026-05-04 21:54 | 67.22574 | 14.40609 | 3929 ft | 162 kts | 24° |
| 2026-05-04 21:54 | 67.23507 | 14.42149 | 3640 ft | 157 kts | 40° |
| 2026-05-04 21:55 | 67.24249 | 14.44013 | 3466 ft | 150 kts | 41° |
| 2026-05-04 21:55 | 67.24989 | 14.45918 | 3352 ft | 143 kts | 44° |
| 2026-05-04 21:55 | 67.25683 | 14.47575 | 3045 ft | 137 kts | 22° |
| 2026-05-04 21:55 | 67.26584 | 14.47606 | 2701 ft | 128 kts | 343° |
| 2026-05-04 21:56 | 67.27375 | 14.47094 | 2607 ft | 104 kts | 323° |
| 2026-05-04 21:56 | 67.27710 | 14.45773 | 2274 ft | 83 kts | 294° |
| 2026-05-04 21:56 | 67.27692 | 14.44299 | 1706 ft | 82 kts | 268° |
| 2026-05-04 21:56 | 67.27495 | 14.42856 | 1026 ft | 87 kts | 267° |
| 2026-05-04 21:57 | 67.27339 | 14.41380 | 434 ft | 82 kts | 263° |
| 2026-05-04 21:57 | 67.27214 | 14.40054 | 102 ft | 66 kts | 259° |
| 2026-05-04 21:57 | 67.27133 | 14.39070 | 47 ft | 45 kts | 260° |
| 2026-05-04 21:57 | 67.27084 | 14.38470 | 49 ft | 16 kts | 272° |
| 2026-05-04 21:58 | 67.27156 | 14.38257 | 49 ft | 17 kts | 286° |
| 2026-05-04 21:58 | 67.27154 | 14.37943 | 51 ft | 19 kts | 265° |
| 2026-05-04 21:58 | 67.27133 | 14.37565 | 49 ft | 24 kts | 255° |
| 2026-05-04 21:58 | 67.27121 | 14.37209 | 46 ft | 14 kts | 328° |
| 2026-05-04 21:59 | 67.27178 | 14.37238 | 45 ft | 8 kts | 70° |
| 2026-05-04 21:59 | 67.27189 | 14.37241 | 44 ft | 0 kts | 291° |